Time;durP1;ratioP1;P1;durP2;ratioP2;P2;SDS_P1;SDS_P2;PMS_P1;PMS_P2;Temp;Humidity;BMP_temperature;BMP_pressure;BME280_temperature;BME280_humidity;BME280_pressure;Samples;Min_cycle;Max_cycle;Signal;HPM_P1;HPM_P2
2023/12/30 00:00:47;;;;;;;5.00;2.80;;;;;;;9.38;88.85;99782.19;106572;1261;99099;-81
2023/12/30 00:03:37;;;;;;;4.50;2.70;;;;;;;9.38;88.91;99783.52;106429;1264;99164;-82
2023/12/30 00:06:23;;;;;;;4.80;3.00;;;;;;;9.36;88.74;99780.50;106279;1263;97955;-82
2023/12/30 00:09:09;;;;;;;4.70;3.10;;;;;;;9.36;88.86;99781.77;106427;1266;96481;-82
2023/12/30 00:11:55;;;;;;;6.50;3.30;;;;;;;9.36;88.71;99781.82;106406;1262;101482;-82
2023/12/30 00:14:40;;;;;;;6.70;3.30;;;;;;;9.36;88.72;99777.50;106459;1262;100422;-83
2023/12/30 00:17:25;;;;;;;6.50;3.20;;;;;;;9.36;89.12;99779.92;106468;1262;97882;-82
2023/12/30 00:20:11;;;;;;;7.20;3.50;;;;;;;9.36;88.79;99775.19;106554;1264;97718;-82
2023/12/30 00:22:57;;;;;;;6.00;3.00;;;;;;;9.35;88.99;99773.04;106501;1262;98077;-81
2023/12/30 00:25:43;;;;;;;5.90;3.20;;;;;;;9.35;88.91;99775.14;106425;1262;101517;-80
2023/12/30 00:28:28;;;;;;;3.90;2.40;;;;;;;9.34;88.93;99771.14;106390;1264;100612;-80
2023/12/30 00:31:25;;;;;;;6.60;3.00;;;;;;;9.32;88.86;99768.76;106314;1264;97872;-80
2023/12/30 00:34:10;;;;;;;4.60;2.80;;;;;;;9.31;89.04;99770.81;106391;1267;99271;-80
2023/12/30 00:36:56;;;;;;;6.10;3.00;;;;;;;9.30;89.01;99770.68;106505;1265;97899;-79
2023/12/30 00:39:41;;;;;;;4.90;2.90;;;;;;;9.28;88.86;99763.16;106569;1265;102654;-81
2023/12/30 00:42:27;;;;;;;3.70;2.40;;;;;;;9.27;89.16;99761.05;106295;1267;100370;-82
2023/12/30 00:45:12;;;;;;;3.90;2.70;;;;;;;9.24;88.99;99760.09;106522;1264;98995;-81
2023/12/30 00:47:57;;;;;;;3.90;2.80;;;;;;;9.23;89.16;99756.56;106428;1264;98543;-81
2023/12/30 00:50:43;;;;;;;4.70;2.70;;;;;;;9.21;89.34;99753.37;106565;1262;98438;-82
2023/12/30 00:53:29;;;;;;;3.90;3.00;;;;;;;9.21;89.45;99754.98;106469;1266;101502;-81
2023/12/30 00:56:14;;;;;;;5.30;2.60;;;;;;;9.21;89.47;99755.56;106462;1262;99139;-81
2023/12/30 00:59:00;;;;;;;6.20;2.80;;;;;;;9.23;89.71;99754.66;106384;1268;97879;-82
2023/12/30 01:01:45;;;;;;;6.00;2.80;;;;;;;9.24;89.80;99749.45;106484;1267;97909;-80
2023/12/30 01:04:31;;;;;;;4.10;2.70;;;;;;;9.24;89.82;99747.09;106377;1262;97956;-82
2023/12/30 01:07:16;;;;;;;4.10;2.30;;;;;;;9.25;90.07;99740.98;106314;1266;101470;-81
2023/12/30 01:10:04;;;;;;;3.80;2.50;;;;;;;9.25;90.05;99745.20;106328;1264;100305;-81
2023/12/30 01:12:49;;;;;;;3.50;2.50;;;;;;;9.24;90.05;99742.87;106319;1262;98997;-81
2023/12/30 01:15:35;;;;;;;5.20;2.60;;;;;;;9.23;90.15;99743.89;106429;1262;97988;-80
2023/12/30 01:18:20;;;;;;;5.30;3.00;;;;;;;9.21;90.14;99739.11;106383;1264;98748;-80
2023/12/30 01:21:06;;;;;;;4.80;3.10;;;;;;;9.19;90.16;99736.22;106399;1267;102073;-79
2023/12/30 01:23:53;;;;;;;4.30;2.70;;;;;;;9.16;90.37;99740.23;105762;1265;99176;-80
2023/12/30 01:26:39;;;;;;;7.00;4.40;;;;;;;9.13;90.25;99741.12;105725;1267;98711;-78
2023/12/30 01:29:28;;;;;;;6.20;3.30;;;;;;;9.11;90.50;99735.90;105963;1267;97920;-80
2023/12/30 01:32:14;;;;;;;8.10;4.00;;;;;;;9.09;90.64;99727.72;105884;1263;98416;-80
2023/12/30 01:34:59;;;;;;;5.80;3.50;;;;;;;9.08;90.69;99724.67;105982;1262;101413;-80
2023/12/30 01:37:45;;;;;;;6.60;3.40;;;;;;;9.05;90.71;99725.20;105966;1268;99122;-79
2023/12/30 01:40:31;;;;;;;5.70;3.50;;;;;;;9.05;90.83;99715.85;106413;1262;98440;-80
2023/12/30 01:43:24;;;;;;;7.00;3.40;;;;;;;9.03;91.04;99714.29;106608;1263;97876;-80
2023/12/30 01:46:10;;;;;;;6.70;3.70;;;;;;;9.03;91.20;99714.70;106494;1267;98956;-81
2023/12/30 01:48:56;;;;;;;8.00;4.50;;;;;;;9.01;91.14;99711.60;106075;1267;101321;-80
2023/12/30 01:51:41;;;;;;;7.00;3.80;;;;;;;8.96;91.13;99717.25;106480;1262;99087;-80
2023/12/30 01:54:26;;;;;;;9.50;4.70;;;;;;;8.91;91.15;99709.70;106410;1264;97866;-80
2023/12/30 01:57:12;;;;;;;9.10;5.00;;;;;;;8.85;91.22;99706.87;106470;1267;97898;-81
2023/12/30 02:00:01;;;;;;;9.40;4.40;;;;;;;8.79;91.27;99706.63;106438;1262;98429;-80
2023/12/30 02:02:57;;;;;;;9.50;5.10;;;;;;;8.74;91.38;99694.85;106129;1267;101428;-79
2023/12/30 02:05:45;;;;;;;11.80;5.40;;;;;;;8.68;91.56;99686.28;106632;1262;99272;-80
2023/12/30 02:08:31;;;;;;;8.40;4.90;;;;;;;8.63;91.36;99682.05;106472;1267;97856;-81
2023/12/30 02:11:17;;;;;;;10.00;5.90;;;;;;;8.55;91.32;99680.00;106467;1265;97871;-80
2023/12/30 02:14:02;;;;;;;11.80;5.90;;;;;;;8.49;91.66;99675.78;106487;1266;97778;-79
2023/12/30 02:16:48;;;;;;;8.50;5.50;;;;;;;8.45;91.75;99669.55;106557;1266;101367;-79
2023/12/30 02:19:33;;;;;;;9.30;5.90;;;;;;;8.41;91.77;99665.00;105765;1267;101048;-80
2023/12/30 02:22:18;;;;;;;9.20;6.20;;;;;;;8.39;92.06;99666.88;105922;1264;99063;-80
2023/12/30 02:25:04;;;;;;;10.50;6.30;;;;;;;8.38;92.22;99668.30;106494;1265;97855;-80
2023/12/30 02:27:49;;;;;;;12.40;5.40;;;;;;;8.35;92.18;99668.86;106469;1262;97884;-80
2023/12/30 02:30:35;;;;;;;9.50;5.70;;;;;;;8.33;92.35;99657.60;106498;1262;102352;-80
2023/12/30 02:33:20;;;;;;;9.50;5.70;;;;;;;8.31;92.65;99654.41;106439;1267;100369;-80
2023/12/30 02:36:06;;;;;;;8.80;5.40;;;;;;;8.28;92.83;99657.48;106074;1262;98545;-81
2023/12/30 02:38:52;;;;;;;10.20;5.40;;;;;;;8.25;92.94;99664.79;106395;1265;98108;-80
2023/12/30 02:41:38;;;;;;;10.30;5.80;;;;;;;8.23;92.94;99659.91;106515;1265;98005;-79
2023/12/30 02:44:24;;;;;;;9.10;5.80;;;;;;;8.22;93.13;99660.23;105894;1264;103053;-80
2023/12/30 02:47:10;;;;;;;10.50;6.20;;;;;;;8.21;93.26;99657.48;105788;1269;100160;-80
2023/12/30 02:49:56;;;;;;;8.00;5.10;;;;;;;8.21;93.29;99650.59;105677;1267;97996;-80
2023/12/30 02:52:41;;;;;;;10.00;5.70;;;;;;;8.20;93.37;99647.86;106265;1265;98573;-80
2023/12/30 02:55:27;;;;;;;8.90;6.00;;;;;;;8.18;93.48;99644.90;106419;1263;97895;-80
2023/12/30 02:58:12;;;;;;;9.50;5.70;;;;;;;8.17;93.71;99647.89;106495;1264;101346;-79
2023/12/30 03:00:58;;;;;;;9.50;5.50;;;;;;;8.16;93.80;99646.58;106489;1264;99127;-80
2023/12/30 03:03:44;;;;;;;9.30;5.30;;;;;;;8.15;93.82;99645.38;106537;1262;97893;-79
2023/12/30 03:06:29;;;;;;;10.20;5.20;;;;;;;8.16;93.74;99636.60;106548;1266;96493;-81
2023/12/30 03:09:15;;;;;;;9.30;5.50;;;;;;;8.16;93.82;99626.63;106440;1268;97861;-81
2023/12/30 03:12:03;;;;;;;8.40;5.50;;;;;;;8.15;94.00;99614.30;106608;1264;102419;-80
2023/12/30 03:14:49;;;;;;;9.40;5.10;;;;;;;8.14;94.02;99607.65;106506;1262;99207;-80
2023/12/30 03:17:34;;;;;;;8.90;6.10;;;;;;;8.16;94.05;99601.44;106108;1262;99035;-80
2023/12/30 03:20:19;;;;;;;8.80;5.10;;;;;;;8.16;93.98;99593.20;106049;1266;98013;-80
2023/12/30 03:23:05;;;;;;;9.40;4.90;;;;;;;8.17;94.12;99590.08;106081;1262;98445;-79
2023/12/30 03:25:51;;;;;;;8.00;4.60;;;;;;;8.18;94.40;99590.29;105988;1269;101427;-80
2023/12/30 03:28:37;;;;;;;7.20;4.90;;;;;;;8.19;94.38;99589.98;105836;1267;99774;-79
2023/12/30 03:31:27;;;;;;;7.90;4.30;;;;;;;8.20;94.46;99587.88;105861;1268;98419;-80
2023/12/30 03:34:12;;;;;;;8.70;4.70;;;;;;;8.21;94.36;99585.30;105962;1262;97908;-80
2023/12/30 03:36:58;;;;;;;7.20;4.60;;;;;;;8.22;94.55;99580.73;106596;1262;97913;-81
2023/12/30 03:39:43;;;;;;;8.10;4.40;;;;;;;8.22;94.40;99577.78;106662;1266;101414;-80
2023/12/30 03:42:29;;;;;;;7.60;4.60;;;;;;;8.24;94.51;99578.50;106476;1265;99151;-80
2023/12/30 03:45:14;;;;;;;5.80;4.00;;;;;;;8.26;94.56;99577.21;105987;1262;98061;-79
2023/12/30 03:48:00;;;;;;;6.10;3.80;;;;;;;8.29;94.67;99576.83;106017;1264;99069;-80
2023/12/30 03:50:46;;;;;;;8.40;4.20;;;;;;;8.30;94.64;99571.87;106088;1265;97160;-80
2023/12/30 03:53:32;;;;;;;8.70;4.60;;;;;;;8.32;94.63;99572.34;106428;1267;102708;-80
2023/12/30 03:56:18;;;;;;;8.10;4.00;;;;;;;8.33;94.80;99574.15;106349;1263;99112;-80
2023/12/30 03:59:03;;;;;;;8.70;4.00;;;;;;;8.34;94.83;99571.57;106574;1264;99546;-81
2023/12/30 04:01:49;;;;;;;11.00;4.70;;;;;;;8.35;94.91;99570.02;106367;1263;97987;-79
2023/12/30 04:04:35;;;;;;;5.40;3.80;;;;;;;8.36;94.79;99569.27;106085;1267;98452;-81
2023/12/30 04:07:20;;;;;;;6.40;3.50;;;;;;;8.38;94.91;99571.30;106660;1268;102701;-80
2023/12/30 04:10:07;;;;;;;5.20;3.30;;;;;;;8.41;94.94;99568.32;106357;1268;100333;-81
2023/12/30 04:12:52;;;;;;;6.40;4.40;;;;;;;8.43;94.62;99568.70;106443;1267;98683;-80
2023/12/30 04:15:38;;;;;;;5.90;3.00;;;;;;;8.45;94.96;99573.06;106371;1265;98595;-81
2023/12/30 04:18:23;;;;;;;6.30;4.00;;;;;;;8.47;94.84;99580.83;106448;1263;97071;-80
2023/12/30 04:21:09;;;;;;;10.80;3.70;;;;;;;8.48;94.68;99575.83;106427;1266;101399;-81
2023/12/30 04:23:54;;;;;;;5.60;3.60;;;;;;;8.52;94.91;99573.43;106447;1264;99196;-80
2023/12/30 04:26:40;;;;;;;5.80;3.70;;;;;;;8.55;94.60;99570.84;106536;1266;97876;-80
2023/12/30 04:29:26;;;;;;;5.10;3.10;;;;;;;8.59;94.81;99570.09;106434;1266;97871;-81
2023/12/30 04:32:12;;;;;;;5.20;3.00;;;;;;;8.61;94.91;99574.46;106495;1262;97971;-81
2023/12/30 04:34:58;;;;;;;4.00;2.90;;;;;;;8.63;94.83;99569.91;106446;1264;101348;-80
2023/12/30 04:37:43;;;;;;;4.60;2.80;;;;;;;8.64;94.73;99567.02;106338;1264;99217;-81
2023/12/30 04:40:29;;;;;;;4.40;2.80;;;;;;;8.67;94.74;99570.81;106350;1264;97741;-80
2023/12/30 04:43:15;;;;;;;4.90;3.40;;;;;;;8.69;94.55;99569.02;106532;1267;98001;-81
2023/12/30 04:46:01;;;;;;;4.40;2.90;;;;;;;8.72;94.69;99567.02;106403;1264;97956;-80
2023/12/30 04:48:48;;;;;;;5.30;3.40;;;;;;;8.75;94.60;99567.10;106367;1264;101442;-81
2023/12/30 04:51:36;;;;;;;5.40;2.80;;;;;;;8.77;94.53;99567.64;106547;1263;100488;-81
2023/12/30 04:54:22;;;;;;;5.40;2.50;;;;;;;8.81;94.27;99566.23;106630;1263;97821;-81
2023/12/30 04:57:08;;;;;;;6.10;2.60;;;;;;;8.85;94.23;99564.65;106583;1266;98057;-80
2023/12/30 04:59:53;;;;;;;5.60;2.30;;;;;;;8.90;94.03;99565.77;106648;1266;98519;-81
2023/12/30 05:02:39;;;;;;;3.20;2.30;;;;;;;8.97;93.87;99571.62;106448;1268;101455;-80
2023/12/30 05:05:24;;;;;;;2.50;2.00;;;;;;;9.04;93.53;99575.50;106595;1263;99182;-81
2023/12/30 05:08:10;;;;;;;2.40;1.80;;;;;;;9.09;93.30;99574.57;106488;1263;97894;-82
2023/12/30 05:10:56;;;;;;;4.30;2.20;;;;;;;9.17;93.17;99579.80;106515;1264;97917;-81
2023/12/30 05:13:42;;;;;;;2.20;1.60;;;;;;;9.24;92.74;99573.34;106439;1264;98546;-82
2023/12/30 05:16:28;;;;;;;2.90;2.00;;;;;;;9.33;92.40;99575.86;106500;1263;102278;-82
2023/12/30 05:19:13;;;;;;;3.10;1.80;;;;;;;9.40;92.22;99587.05;106508;1267;99095;-81
2023/12/30 05:21:59;;;;;;;2.30;1.90;;;;;;;9.44;91.60;99583.89;106586;1264;97890;-81
2023/12/30 05:24:44;;;;;;;2.80;1.70;;;;;;;9.49;91.40;99589.04;106476;1267;97879;-81
2023/12/30 05:27:30;;;;;;;3.80;1.80;;;;;;;9.54;90.89;99590.23;106469;1266;97184;-80
2023/12/30 05:30:15;;;;;;;2.90;1.70;;;;;;;9.60;90.80;99592.49;106514;1262;102343;-80
2023/12/30 05:33:01;;;;;;;3.20;1.90;;;;;;;9.64;90.31;99592.70;106552;1263;99205;-81
2023/12/30 05:35:46;;;;;;;2.30;1.70;;;;;;;9.66;90.25;99601.71;106385;1264;97726;-80
2023/12/30 05:38:32;;;;;;;3.50;2.20;;;;;;;9.69;90.07;99599.52;106406;1264;97969;-80
2023/12/30 05:41:17;;;;;;;1.60;1.30;;;;;;;9.70;90.03;99607.55;106461;1267;97902;-81
2023/12/30 05:44:03;;;;;;;2.40;1.60;;;;;;;9.71;89.90;99617.35;106420;1264;101376;-80
2023/12/30 05:46:48;;;;;;;2.20;1.40;;;;;;;9.68;90.28;99621.54;106451;1263;99165;-80
2023/12/30 05:49:36;;;;;;;3.00;1.20;;;;;;;9.59;90.42;99628.73;106668;1264;98007;-81
2023/12/30 05:52:21;;;;;;;2.40;1.10;;;;;;;9.48;90.84;99628.88;106548;1267;98151;-80
2023/12/30 05:55:07;;;;;;;1.90;1.50;;;;;;;9.40;90.64;99638.70;106554;1263;97990;-80
2023/12/30 05:57:53;;;;;;;1.70;1.20;;;;;;;9.33;91.63;99653.19;106507;1267;101388;-81
2023/12/30 06:00:38;;;;;;;1.50;1.30;;;;;;;9.24;92.70;99656.74;106528;1264;100055;-80
2023/12/30 06:03:23;;;;;;;2.20;1.40;;;;;;;9.13;93.38;99658.11;106518;1263;98005;-80
2023/12/30 06:06:09;;;;;;;1.90;1.10;;;;;;;9.04;94.06;99658.47;106525;1263;97951;-80
2023/12/30 06:08:54;;;;;;;1.80;1.30;;;;;;;8.95;94.74;99656.73;106483;1264;96502;-80
2023/12/30 06:11:40;;;;;;;1.40;1.20;;;;;;;8.89;95.11;99652.46;106579;1263;102682;-80
2023/12/30 06:14:25;;;;;;;1.70;0.90;;;;;;;8.85;95.86;99644.71;106478;1263;99334;-81
2023/12/30 06:17:11;;;;;;;1.40;1.20;;;;;;;8.82;96.26;99636.56;106552;1263;99053;-80
2023/12/30 06:19:57;;;;;;;1.50;1.10;;;;;;;8.77;96.52;99640.89;106523;1266;97766;-80
2023/12/30 06:22:43;;;;;;;2.40;1.20;;;;;;;8.70;96.53;99648.83;106678;1263;98578;-80
2023/12/30 06:25:29;;;;;;;1.00;0.90;;;;;;;8.65;96.90;99655.04;106432;1267;102415;-80
2023/12/30 06:28:15;;;;;;;2.20;1.50;;;;;;;8.62;96.93;99663.08;106299;1263;99104;-80
2023/12/30 06:31:00;;;;;;;1.50;1.40;;;;;;;8.61;97.10;99668.00;106337;1267;98457;-80
2023/12/30 06:33:45;;;;;;;4.80;2.10;;;;;;;8.60;97.04;99674.27;106456;1263;97981;-81
2023/12/30 06:36:31;;;;;;;3.70;1.40;;;;;;;8.57;97.05;99683.49;106410;1263;99152;-80
2023/12/30 06:39:18;;;;;;;2.30;1.50;;;;;;;8.55;97.14;99687.43;106624;1263;101519;-81
2023/12/30 06:42:04;;;;;;;1.80;1.70;;;;;;;8.55;97.19;99692.61;106581;1263;100324;-81
2023/12/30 06:44:50;;;;;;;1.30;1.10;;;;;;;8.53;97.21;99691.92;106428;1267;99667;-81
2023/12/30 06:47:36;;;;;;;1.70;1.30;;;;;;;8.53;97.04;99688.41;106531;1264;98096;-81
2023/12/30 06:50:22;;;;;;;2.50;1.10;;;;;;;8.52;97.02;99692.14;106574;1270;98055;-82
2023/12/30 06:53:07;;;;;;;2.10;1.30;;;;;;;8.50;97.29;99694.14;106372;1264;101468;-81
2023/12/30 06:55:53;;;;;;;1.80;1.10;;;;;;;8.48;97.29;99692.22;106583;1263;100488;-81
2023/12/30 06:58:38;;;;;;;1.60;1.30;;;;;;;8.47;97.36;99698.30;106406;1263;97873;-79
2023/12/30 07:01:25;;;;;;;2.40;1.40;;;;;;;8.45;97.57;99703.46;106115;1268;98714;-80
2023/12/30 07:04:10;;;;;;;1.50;1.30;;;;;;;8.44;97.75;99708.29;105998;1264;97976;-80
2023/12/30 07:06:56;;;;;;;3.10;1.50;;;;;;;8.43;97.98;99716.04;105738;1262;102068;-79
2023/12/30 07:09:41;;;;;;;3.40;1.40;;;;;;;8.43;98.08;99717.65;106035;1262;100445;-80
2023/12/30 07:12:26;;;;;;;1.80;1.40;;;;;;;8.42;98.32;99726.17;106112;1267;98105;-80
2023/12/30 07:15:12;;;;;;;2.50;1.60;;;;;;;8.40;98.56;99734.34;105844;1262;98319;-80
2023/12/30 07:17:57;;;;;;;1.80;1.60;;;;;;;8.40;98.86;99738.89;106119;1267;98015;-81
2023/12/30 07:20:43;;;;;;;1.50;1.40;;;;;;;8.39;99.02;99739.66;106134;1262;101393;-80
2023/12/30 07:23:29;;;;;;;2.70;2.00;;;;;;;8.38;99.23;99737.98;106554;1266;99110;-79
2023/12/30 07:26:14;;;;;;;2.60;1.70;;;;;;;8.38;99.22;99741.71;106555;1262;98020;-80
2023/12/30 07:29:00;;;;;;;2.60;1.90;;;;;;;8.39;99.30;99746.56;106590;1262;97914;-80
2023/12/30 07:31:45;;;;;;;4.50;1.40;;;;;;;8.41;99.24;99750.61;106174;1264;98087;-79
2023/12/30 07:34:31;;;;;;;2.50;1.70;;;;;;;8.41;99.05;99749.34;105608;1264;101337;-80
2023/12/30 07:37:17;;;;;;;2.50;1.60;;;;;;;8.40;99.09;99752.39;105482;1267;99210;-79
2023/12/30 07:40:03;;;;;;;2.80;1.60;;;;;;;8.38;99.35;99756.52;106400;1266;98512;-82
2023/12/30 07:42:49;;;;;;;3.70;2.10;;;;;;;8.37;99.54;99755.38;106630;1262;97951;-81
2023/12/30 07:45:34;;;;;;;3.60;2.30;;;;;;;8.36;99.98;99756.23;106356;1266;98021;-80
2023/12/30 07:48:19;;;;;;;6.70;2.50;;;;;;;8.32;100.00;99765.06;106604;1264;101412;-79
2023/12/30 07:51:05;;;;;;;5.00;1.90;;;;;;;8.30;100.00;99769.88;106643;1263;99137;-80
2023/12/30 07:53:50;;;;;;;2.90;1.90;;;;;;;8.26;100.00;99769.23;106455;1264;99066;-81
2023/12/30 07:56:36;;;;;;;2.90;2.00;;;;;;;8.25;100.00;99760.54;106499;1262;98015;-80
2023/12/30 07:59:22;;;;;;;3.10;1.90;;;;;;;8.23;100.00;99773.89;106593;1267;96331;-80
2023/12/30 08:02:07;;;;;;;2.40;2.10;;;;;;;8.18;100.00;99777.67;106447;1264;102756;-79
2023/12/30 08:04:54;;;;;;;5.40;4.70;;;;;;;8.18;100.00;99775.01;106506;1263;99263;-79
2023/12/30 08:07:40;;;;;;;4.10;3.80;;;;;;;8.19;100.00;99778.20;106442;1263;99744;-81
2023/12/30 08:10:25;;;;;;;4.60;4.20;;;;;;;8.16;100.00;99778.02;106447;1264;97930;-80
2023/12/30 08:13:11;;;;;;;7.50;5.90;;;;;;;8.15;100.00;99777.71;106469;1264;99312;-81
2023/12/30 08:15:57;;;;;;;3.50;3.00;;;;;;;8.14;100.00;99787.97;106455;1263;103204;-81
2023/12/30 08:18:42;;;;;;;4.00;2.70;;;;;;;8.13;100.00;99794.86;106415;1262;99340;-81
2023/12/30 08:21:29;;;;;;;4.30;2.20;;;;;;;8.11;100.00;99793.52;106422;1263;98804;-81
2023/12/30 08:24:16;;;;;;;4.10;3.70;;;;;;;8.08;100.00;99793.57;106519;1262;96471;-80
2023/12/30 08:27:02;;;;;;;6.40;4.00;;;;;;;8.05;100.00;99796.95;106463;1263;97276;-80
2023/12/30 08:29:47;;;;;;;6.00;3.10;;;;;;;8.01;100.00;99802.65;106586;1263;102699;-81
2023/12/30 08:32:33;;;;;;;3.90;2.60;;;;;;;7.98;100.00;99806.64;106440;1262;99206;-80
2023/12/30 08:35:18;;;;;;;5.10;2.50;;;;;;;7.94;100.00;99812.96;105924;1264;98779;-79
2023/12/30 08:38:04;;;;;;;3.80;2.40;;;;;;;7.89;100.00;99811.80;105964;1262;97990;-79
2023/12/30 08:40:49;;;;;;;3.40;2.20;;;;;;;7.84;100.00;99812.89;105871;1267;99156;-80
2023/12/30 08:43:35;;;;;;;2.80;1.80;;;;;;;7.79;100.00;99814.73;105991;1263;102116;-80
2023/12/30 08:46:21;;;;;;;3.90;1.90;;;;;;;7.74;100.00;99819.49;105763;1267;100510;-79
2023/12/30 08:49:07;;;;;;;4.50;2.30;;;;;;;7.70;100.00;99832.58;106011;1267;97964;-80
2023/12/30 08:51:53;;;;;;;8.70;6.30;;;;;;;7.67;100.00;99837.75;106475;1262;99291;-80
2023/12/30 08:54:40;;;;;;;7.60;5.10;;;;;;;7.64;100.00;99839.96;106376;1267;98437;-79
2023/12/30 08:57:26;;;;;;;4.60;3.20;;;;;;;7.62;100.00;99843.35;106061;1265;101423;-80
2023/12/30 09:00:12;;;;;;;5.10;2.70;;;;;;;7.61;100.00;99845.98;106374;1264;99176;-81
2023/12/30 09:02:57;;;;;;;3.20;2.30;;;;;;;7.61;100.00;99843.16;106552;1267;97982;-80
2023/12/30 09:05:44;;;;;;;5.30;2.50;;;;;;;7.62;100.00;99843.67;106518;1264;97804;-81
2023/12/30 09:08:30;;;;;;;5.20;2.20;;;;;;;7.64;100.00;99845.55;106387;1266;97871;-80
2023/12/30 09:11:22;;;;;;;1.80;1.30;;;;;;;7.62;100.00;99848.64;106179;1262;101394;-80
2023/12/30 09:14:08;;;;;;;2.80;1.50;;;;;;;7.59;100.00;99845.85;106514;1264;100704;-81
2023/12/30 09:16:54;;;;;;;2.40;1.50;;;;;;;7.57;100.00;99851.64;106537;1267;99205;-81
2023/12/30 09:19:40;;;;;;;3.30;1.40;;;;;;;7.53;100.00;99872.17;106635;1262;97916;-80
2023/12/30 09:22:25;;;;;;;1.80;1.50;;;;;;;7.50;100.00;99867.39;106478;1262;97986;-80
2023/12/30 09:25:11;;;;;;;2.80;1.80;;;;;;;7.45;100.00;99856.29;106335;1264;101357;-86
2023/12/30 09:27:56;;;;;;;5.80;3.30;;;;;;;7.40;100.00;99852.15;106051;1263;99262;-82
2023/12/30 09:30:41;;;;;;;6.40;5.10;;;;;;;7.39;100.00;99848.67;105936;1264;99446;-81
2023/12/30 09:33:27;;;;;;;7.90;5.70;;;;;;;7.41;100.00;99843.44;106035;1266;98010;-79
2023/12/30 09:36:12;;;;;;;5.60;4.00;;;;;;;7.43;100.00;99840.72;105563;1264;98619;-77
2023/12/30 09:38:58;;;;;;;7.20;3.60;;;;;;;7.44;100.00;99847.38;106282;1264;101497;-85
2023/12/30 09:41:44;;;;;;;6.30;3.70;;;;;;;7.46;100.00;99844.61;106038;1270;100450;-86
2023/12/30 09:44:32;;;;;;;4.80;2.90;;;;;;;7.48;100.00;99851.48;105823;1264;97978;-77
2023/12/30 09:47:18;;;;;;;3.90;2.60;;;;;;;7.50;100.00;99853.73;105146;1267;98026;-77
2023/12/30 09:50:04;;;;;;;6.30;3.40;;;;;;;7.49;100.00;99854.53;105821;1263;97767;-78
2023/12/30 09:52:50;;;;;;;5.30;2.50;;;;;;;7.51;100.00;99843.89;105188;1264;101361;-78
2023/12/30 09:55:35;;;;;;;4.00;2.50;;;;;;;7.50;100.00;99839.34;105192;1262;100922;-77
2023/12/30 09:58:22;;;;;;;6.30;3.40;;;;;;;7.49;100.00;99842.15;105260;1267;97969;-77
2023/12/30 10:01:08;;;;;;;6.90;3.50;;;;;;;7.48;100.00;99842.13;105325;1267;98120;-77
2023/12/30 10:03:53;;;;;;;7.80;4.40;;;;;;;7.48;100.00;99852.27;105412;1264;98765;-78
2023/12/30 10:06:42;;;;;;;5.40;3.10;;;;;;;7.51;100.00;99855.20;105434;1263;101364;-79
2023/12/30 10:09:29;;;;;;;6.10;3.10;;;;;;;7.57;100.00;99854.14;105519;1262;100346;-78
2023/12/30 10:12:15;;;;;;;4.80;2.50;;;;;;;7.64;100.00;99855.39;105573;1262;97910;-78
2023/12/30 10:15:00;;;;;;;4.10;2.40;;;;;;;7.68;100.00;99854.86;105480;1265;97995;-78
2023/12/30 10:17:46;;;;;;;4.20;2.60;;;;;;;7.71;100.00;99860.23;105579;1262;97958;-77
2023/12/30 10:20:32;;;;;;;6.30;3.40;;;;;;;7.75;100.00;99865.09;105684;1266;102327;-78
2023/12/30 10:23:18;;;;;;;4.30;3.10;;;;;;;7.77;100.00;99861.38;105629;1264;99077;-78
2023/12/30 10:26:04;;;;;;;4.60;3.70;;;;;;;7.79;100.00;99866.08;105475;1264;97762;-77
2023/12/30 10:28:49;;;;;;;8.10;7.00;;;;;;;7.83;100.00;99869.39;105115;1264;98104;-77
2023/12/30 10:31:35;;;;;;;4.90;2.20;;;;;;;7.88;100.00;99866.01;105180;1264;98470;-77
2023/12/30 10:34:21;;;;;;;4.60;1.80;;;;;;;7.89;100.00;99866.84;105364;1264;101368;-79
2023/12/30 10:37:07;;;;;;;4.00;1.80;;;;;;;7.94;100.00;99873.25;105726;1264;99134;-79
2023/12/30 10:39:53;;;;;;;3.60;1.80;;;;;;;8.00;100.00;99865.00;105145;1264;99310;-76
2023/12/30 10:42:41;;;;;;;3.60;2.20;;;;;;;8.05;100.00;99863.63;104998;1267;97974;-76
2023/12/30 10:45:27;;;;;;;3.50;1.50;;;;;;;8.05;99.84;99866.99;105175;1262;99752;-77
2023/12/30 10:48:14;;;;;;;3.30;2.00;;;;;;;8.02;99.14;99876.35;105086;1267;101422;-79
2023/12/30 10:51:01;;;;;;;3.70;2.40;;;;;;;7.98;98.88;99881.27;105108;1264;99211;-77
2023/12/30 10:53:53;;;;;;;4.60;2.40;;;;;;;7.97;98.96;99888.67;105081;1262;99293;-78
2023/12/30 10:56:45;;;;;;;2.80;2.00;;;;;;;7.95;98.31;99896.66;105118;1264;97957;-77
2023/12/30 10:59:30;;;;;;;3.70;2.50;;;;;;;7.93;97.95;99891.84;105094;1263;98503;-78
2023/12/30 11:02:16;;;;;;;3.00;1.90;;;;;;;7.93;98.26;99889.98;105083;1263;102613;-78
2023/12/30 11:05:07;;;;;;;3.90;1.70;;;;;;;7.95;98.07;99890.84;104965;1264;100369;-78
2023/12/30 11:07:53;;;;;;;2.40;2.00;;;;;;;7.93;97.73;99889.75;105645;1263;97873;-77
2023/12/30 11:10:39;;;;;;;3.60;3.00;;;;;;;7.89;97.76;99895.11;105525;1267;97969;-79
2023/12/30 11:13:24;;;;;;;8.50;3.10;;;;;;;7.84;97.73;99912.08;105608;1263;98594;-79
2023/12/30 11:16:19;;;;;;;3.90;1.60;;;;;;;7.68;97.92;99950.28;105622;1263;102717;-79
2023/12/30 11:19:05;;;;;;;1.00;0.90;;;;;;;7.29;97.03;99963.92;105695;1264;100081;-79
2023/12/30 11:21:54;;;;;;;1.20;0.60;;;;;;;6.93;96.50;99941.76;105394;1264;98192;-78
2023/12/30 11:24:42;;;;;;;1.70;1.10;;;;;;;6.66;96.23;99926.29;105050;1269;97946;-77
2023/12/30 11:27:30;;;;;;;3.10;1.50;;;;;;;6.51;97.05;99931.27;105299;1267;99739;-78
2023/12/30 11:30:17;;;;;;;1.90;1.10;;;;;;;6.42;97.24;99933.23;105209;1267;101455;-78
2023/12/30 11:33:03;;;;;;;2.70;1.90;;;;;;;6.34;97.24;99937.95;105172;1264;99378;-77
2023/12/30 11:35:54;;;;;;;7.50;4.10;;;;;;;6.25;97.43;99944.02;105133;1262;97932;-77
2023/12/30 11:38:43;;;;;;;6.20;3.80;;;;;;;6.22;97.75;99949.65;105051;1268;97953;-77
2023/12/30 11:41:30;;;;;;;6.40;3.90;;;;;;;6.17;97.47;99955.40;105118;1264;97905;-78
2023/12/30 11:44:16;;;;;;;13.30;6.60;;;;;;;6.09;97.71;99957.33;105094;1264;101372;-77
2023/12/30 11:47:02;;;;;;;6.20;3.60;;;;;;;6.06;98.17;99958.23;105125;1263;99162;-77
2023/12/30 11:49:47;;;;;;;4.90;2.50;;;;;;;6.06;98.76;99956.52;105005;1267;98314;-77
2023/12/30 11:52:36;;;;;;;9.10;4.50;;;;;;;6.07;99.06;99962.36;105038;1264;98108;-77
2023/12/30 11:55:22;;;;;;;66.70;21.60;;;;;;;6.10;99.50;99963.71;104928;1267;97981;-78
2023/12/30 11:58:08;;;;;;;54.40;17.50;;;;;;;6.13;99.80;99965.29;104830;1267;102237;-77
2023/12/30 12:00:53;;;;;;;21.70;8.40;;;;;;;6.16;99.81;99971.09;104884;1266;100114;-78
2023/12/30 12:03:40;;;;;;;18.10;9.40;;;;;;;6.19;99.97;99969.22;104958;1264;99869;-77
2023/12/30 12:06:25;;;;;;;9.50;5.50;;;;;;;6.25;99.99;99971.55;104942;1264;98074;-78
2023/12/30 12:09:11;;;;;;;4.80;3.00;;;;;;;6.31;100.00;99974.40;105345;1267;97923;-78
2023/12/30 12:11:56;;;;;;;3.10;2.40;;;;;;;6.38;100.00;99975.36;105387;1263;101811;-78
2023/12/30 12:14:50;;;;;;;4.90;2.40;;;;;;;6.42;100.00;99978.07;105796;1264;99267;-79
2023/12/30 12:17:36;;;;;;;4.10;2.30;;;;;;;6.44;100.00;99974.29;105470;1267;98519;-80
2023/12/30 12:20:23;;;;;;;6.30;2.20;;;;;;;6.47;100.00;99972.02;105823;1263;97979;-79
2023/12/30 12:23:09;;;;;;;5.00;2.00;;;;;;;6.50;100.00;99973.20;105823;1265;99262;-77
2023/12/30 12:25:57;;;;;;;3.30;2.00;;;;;;;6.57;100.00;99971.79;105807;1264;103124;-80
2023/12/30 12:28:42;;;;;;;2.60;2.00;;;;;;;6.62;100.00;99975.45;105936;1263;101176;-80
2023/12/30 12:31:31;;;;;;;7.40;3.20;;;;;;;6.64;99.69;99982.42;105720;1263;98568;-79
2023/12/30 12:34:24;;;;;;;5.30;3.50;;;;;;;6.65;99.59;99979.42;105911;1264;98128;-80
2023/12/30 12:37:12;;;;;;;6.40;3.10;;;;;;;6.66;99.38;99981.08;106048;1264;97997;-79
2023/12/30 12:39:58;;;;;;;8.30;3.70;;;;;;;6.68;99.28;99986.63;105761;1264;101450;-79
2023/12/30 12:42:44;;;;;;;6.50;3.80;;;;;;;6.67;99.09;99985.27;105456;1267;99307;-77
2023/12/30 12:45:29;;;;;;;6.70;3.70;;;;;;;6.67;98.74;99987.27;105473;1267;98646;-78
2023/12/30 12:48:15;;;;;;;7.30;3.20;;;;;;;6.67;98.81;99993.77;105394;1266;97924;-78
2023/12/30 12:51:00;;;;;;;8.50;3.50;;;;;;;6.67;98.94;99997.30;105382;1264;99063;-79
2023/12/30 12:53:46;;;;;;;8.70;3.70;;;;;;;6.70;98.94;100000.41;105923;1267;102724;-80
2023/12/30 12:56:32;;;;;;;8.40;4.40;;;;;;;6.71;99.28;99998.94;105884;1263;99999;-79